Jfe Tokyo Bay — JD2012 — position and weather

sailwx.info

Track history (hours):
 
Tides and Currents Weather Stations Pressure Air Temp Water Temp Dewpoint Dewpoint Depression Visibility Wind Speed Wind Dir Waves Ship Positions

Jfe Tokyo Bay

Last reported at 2017-Dec-11 14:30 UTC. Time now 2017-Dec-11 14:58 UTC.
Position N 35°34' E 140°02'.

Length 70 m; draft 3.9 m.

Type: Cargo ship. MMSI: 431501791.

Date/timePositionNaut miles runAvg speedWind from/ knotsBaromVisibWave heightAir tempDewpointWater temp
2017-Dec-11 14:30N 35°34' E 140°02'0 0.0
2017-Dec-11 14:01N 35°34' E 140°02'0 0.1
2017-Dec-11 13:31N 35°34' E 140°02'0 0.0
2017-Dec-11 12:59N 35°34' E 140°02'0 0.0
2017-Dec-11 12:30N 35°34' E 140°02'0 0.1
2017-Dec-11 12:01N 35°34' E 140°02'0 0.0
2017-Dec-11 11:30N 35°34' E 140°02'0 0.0
2017-Dec-11 11:00N 35°34' E 140°02'0 0.0
2017-Dec-11 10:31N 35°34' E 140°02'0 0.0
2017-Dec-11 10:01N 35°34' E 140°02'0 0.0
2017-Dec-11 09:31N 35°34' E 140°02'0 0.0
2017-Dec-11 08:59N 35°34' E 140°02'0 0.1
2017-Dec-11 08:31N 35°34' E 140°02'0 0.1
2017-Dec-11 08:00N 35°34' E 140°02'0 0.1
2017-Dec-11 07:31N 35°34' E 140°02'0 0.0
2017-Dec-11 07:00N 35°34' E 140°02'0 0.0
2017-Dec-11 06:30N 35°34' E 140°02'0 0.0
2017-Dec-11 06:01N 35°34' E 140°02'0 0.0
2017-Dec-11 05:30N 35°34' E 140°02'0 0.1
2017-Dec-11 05:01N 35°34' E 140°02'0 0.1
2017-Dec-11 04:30N 35°34' E 140°02'0 0.1
2017-Dec-11 04:01N 35°34' E 140°02'0 0.0
2017-Dec-11 03:31N 35°34' E 140°02'0 0.1
2017-Dec-11 03:01N 35°34' E 140°02'0 0.0
2017-Dec-11 02:30N 35°34' E 140°02'0 0.0
2017-Dec-11 02:01N 35°34' E 140°02'0 0.0
2017-Dec-11 01:30N 35°34' E 140°02'0 0.0
2017-Dec-11 01:01N 35°34' E 140°02'0 0.0
2017-Dec-11 00:30N 35°34' E 140°02'0 0.0
2017-Dec-11 00:00N 35°34' E 140°02'0 0.0
2017-Dec-10 23:30N 35°34' E 140°02'0 0.0
2017-Dec-10 23:01N 35°34' E 140°02'0 0.0
2017-Dec-10 22:30N 35°34' E 140°02'0 0.0
2017-Dec-10 22:01N 35°34' E 140°02'0 0.0
2017-Dec-10 21:30N 35°34' E 140°02'0 0.0
2017-Dec-10 21:00N 35°34' E 140°02'0 0.0
2017-Dec-10 20:31N 35°34' E 140°02'4 7.3
2017-Dec-10 20:00N 35°33' E 140°06'0 0.2
2017-Dec-10 19:30N 35°33' E 140°06'0 0.0
2017-Dec-10 19:00N 35°33' E 140°06'0 0.0
2017-Dec-10 18:31N 35°33' E 140°06'0 0.0
2017-Dec-10 18:01N 35°33' E 140°06'0 0.0
2017-Dec-10 17:30N 35°33' E 140°06'0 0.0
2017-Dec-10 17:00N 35°33' E 140°06'0 0.0
2017-Dec-10 16:31N 35°33' E 140°06'0 0.0
2017-Dec-10 16:00N 35°33' E 140°06'0 0.0
2017-Dec-10 15:30N 35°33' E 140°06'0 0.0
2017-Dec-10 15:01N 35°33' E 140°06'0 0.0
2017-Dec-10 14:31N 35°33' E 140°06'0 0.0
2017-Dec-10 14:00N 35°33' E 140°06'0 0.0
2017-Dec-10 13:30N 35°33' E 140°06'0 0.0
2017-Dec-10 13:00N 35°33' E 140°06'0 0.0
2017-Dec-10 12:31N 35°33' E 140°06'0 0.0
2017-Dec-10 12:01N 35°33' E 140°06'0 0.0
2017-Dec-10 11:31N 35°33' E 140°06'0 0.0
2017-Dec-10 11:01N 35°33' E 140°06'0 0.0
2017-Dec-10 10:30N 35°33' E 140°06'0 0.0
2017-Dec-10 10:01N 35°33' E 140°06'0 0.0
2017-Dec-10 09:30N 35°33' E 140°06'0 0.0
2017-Dec-10 09:00N 35°33' E 140°06'0 0.0
2017-Dec-10 08:31N 35°33' E 140°06'0 0.0
2017-Dec-10 08:01N 35°33' E 140°06'0 0.0
2017-Dec-10 07:30N 35°33' E 140°06'0 0.0
2017-Dec-10 07:01N 35°33' E 140°06'0 0.0
2017-Dec-10 06:31N 35°33' E 140°06'0 0.0
2017-Dec-10 06:00N 35°33' E 140°06'0 0.0
2017-Dec-10 05:30N 35°33' E 140°06'0 0.0
2017-Dec-10 05:01N 35°33' E 140°06'0 0.0
2017-Dec-10 04:30N 35°33' E 140°06'0 0.0
2017-Dec-10 04:01N 35°33' E 140°06'0 0.0
2017-Dec-10 03:30N 35°33' E 140°06'0 0.0
2017-Dec-10 03:01N 35°33' E 140°06'0 0.0
2017-Dec-10 02:30N 35°33' E 140°06'0 0.0
2017-Dec-10 02:01N 35°33' E 140°06'3 5.6
2017-Dec-10 01:31N 35°33' E 140°03'5 9.9
2017-Dec-10 01:00N 35°31' E 139°57'5 9.9
2017-Dec-10 00:30N 35°28' E 139°52'5 9.7
2017-Dec-10 00:00N 35°26' E 139°47'5 9.8
2017-Dec-09 23:30N 35°23' E 139°42'3 5.3
2017-Dec-09 23:00N 35°23' E 139°39'0 0.0
2017-Dec-09 22:30N 35°23' E 139°39'0 0.0
2017-Dec-09 22:01N 35°23' E 139°39'0 0.0
2017-Dec-09 21:31N 35°23' E 139°39'0 0.0
2017-Dec-09 21:00N 35°23' E 139°39'0 0.0
2017-Dec-09 20:30N 35°23' E 139°39'0 0.0
2017-Dec-09 20:00N 35°23' E 139°39'0 0.0
2017-Dec-09 19:30N 35°23' E 139°39'0 0.0
2017-Dec-09 19:00N 35°23' E 139°39'0 0.0
2017-Dec-09 18:30N 35°23' E 139°39'0 0.0
2017-Dec-09 18:00N 35°23' E 139°39'0 0.0
2017-Dec-09 17:30N 35°23' E 139°39'0 0.0
2017-Dec-09 17:00N 35°23' E 139°39'0 0.0
2017-Dec-09 16:30N 35°23' E 139°39'0 0.0
2017-Dec-09 16:00N 35°23' E 139°39'0 0.0
2017-Dec-09 15:30N 35°23' E 139°39'0 0.0
2017-Dec-09 15:00N 35°23' E 139°39'0 0.0
2017-Dec-09 14:30N 35°23' E 139°39'0 0.0
2017-Dec-09 14:00N 35°23' E 139°39'0 0.0
2017-Dec-09 13:30N 35°23' E 139°39'0 0.0
2017-Dec-09 13:00N 35°23' E 139°39'0 0.0
2017-Dec-09 12:30N 35°23' E 139°39'0 0.0
2017-Dec-09 12:00N 35°23' E 139°39'0 0.0
2017-Dec-09 11:30N 35°23' E 139°39'0 0.0
2017-Dec-09 11:00N 35°23' E 139°39'0 0.0
2017-Dec-09 10:30N 35°23' E 139°39'0 0.0
2017-Dec-09 10:00N 35°23' E 139°39'0 0.0
2017-Dec-09 09:30N 35°23' E 139°39'0 0.0
2017-Dec-09 09:00N 35°23' E 139°39'0 0.0
2017-Dec-09 08:30N 35°23' E 139°39'0 0.0
2017-Dec-09 08:00N 35°23' E 139°39'0 0.0
2017-Dec-09 07:30N 35°23' E 139°39'0 0.0
2017-Dec-09 07:00N 35°23' E 139°39'0 0.0
2017-Dec-09 06:30N 35°23' E 139°39'0 0.0
2017-Dec-09 06:00N 35°23' E 139°39'0 0.0
2017-Dec-09 05:30N 35°23' E 139°39'0 0.0
2017-Dec-09 05:00N 35°23' E 139°39'0 0.0
2017-Dec-09 04:30N 35°23' E 139°39'0 0.0
2017-Dec-09 04:00N 35°23' E 139°39'0 0.0
2017-Dec-09 03:30N 35°23' E 139°39'0 0.0
2017-Dec-09 03:00N 35°23' E 139°39'0 0.0
2017-Dec-09 02:30N 35°23' E 139°39'0 0.0
2017-Dec-09 02:00N 35°23' E 139°39'0 0.0
2017-Dec-09 01:30N 35°23' E 139°39'0 0.0
2017-Dec-09 01:00N 35°23' E 139°39'0 0.0
2017-Dec-09 00:30N 35°23' E 139°39'0 0.0
2017-Dec-09 00:00N 35°23' E 139°39'0 0.0
2017-Dec-08 23:30N 35°23' E 139°39'1 1.6
2017-Dec-08 23:01N 35°24' E 139°39'4 8.2
2017-Dec-08 22:31N 35°26' E 139°44'5 9.1
2017-Dec-08 22:00N 35°28' E 139°49'5 9.5
2017-Dec-08 21:31N 35°31' E 139°53'5 9.1
2017-Dec-08 21:00N 35°32' E 139°59'5 9.2
2017-Dec-08 20:30N 35°33' E 140°04'2 3.4
2017-Dec-08 20:00N 35°33' E 140°06'0 0.0
2017-Dec-08 19:30N 35°33' E 140°06'0 0.0
2017-Dec-08 19:00N 35°33' E 140°06'0 0.0
2017-Dec-08 18:27N 35°33' E 140°06'0 0.0
2017-Dec-08 18:00N 35°33' E 140°06'0 0.0
2017-Dec-08 17:27N 35°33' E 140°06'0 0.0
2017-Dec-08 16:51N 35°33' E 140°06'0 0.0
2017-Dec-08 16:30N 35°33' E 140°06'0 0.0
2017-Dec-08 15:57N 35°33' E 140°06'0 0.0
2017-Dec-08 15:27N 35°33' E 140°06'0 0.0
2017-Dec-08 15:00N 35°33' E 140°06'0 0.0
2017-Dec-08 14:26N 35°33' E 140°06'0 0.0
2017-Dec-08 13:59N 35°33' E 140°06'0 0.0
2017-Dec-08 13:26N 35°33' E 140°06'0 0.0
2017-Dec-08 12:56N 35°33' E 140°06'0 0.0
2017-Dec-08 12:29N 35°33' E 140°06'0 0.0
2017-Dec-08 11:59N 35°33' E 140°06'0 0.0
2017-Dec-08 11:29N 35°33' E 140°06'3 6.0
2017-Dec-08 11:00N 35°33' E 140°03'5 9.6
2017-Dec-08 10:30N 35°31' E 139°58'5 9.5
2017-Dec-08 10:00N 35°29' E 139°52'5 9.6
2017-Dec-08 09:30N 35°26' E 139°47'5 9.5
2017-Dec-08 09:00N 35°24' E 139°42'3 5.8
2017-Dec-08 08:30N 35°23' E 139°39'0 0.0
2017-Dec-08 08:00N 35°23' E 139°39'0 0.0
2017-Dec-08 07:30N 35°23' E 139°39'0 0.0
2017-Dec-08 07:00N 35°23' E 139°39'0 0.0
2017-Dec-08 06:30N 35°23' E 139°39'0 0.0
2017-Dec-08 06:00N 35°23' E 139°39'0 0.0
2017-Dec-08 05:30N 35°23' E 139°39'0 0.0
2017-Dec-08 05:00N 35°23' E 139°39'0 0.0
2017-Dec-08 04:30N 35°23' E 139°39'0 0.0
2017-Dec-08 04:00N 35°23' E 139°39'0 0.0
2017-Dec-08 03:30N 35°23' E 139°39'0 0.0
2017-Dec-08 03:00N 35°23' E 139°39'0 0.0
2017-Dec-08 02:30N 35°23' E 139°39'0 0.0
2017-Dec-08 02:00N 35°23' E 139°39'0 0.0
2017-Dec-08 01:30N 35°23' E 139°39'0 0.0
2017-Dec-08 01:00N 35°23' E 139°39'0 0.0
2017-Dec-08 00:30N 35°23' E 139°39'0 0.0
2017-Dec-08 00:00N 35°23' E 139°39'0 0.0
2017-Dec-07 23:30N 35°23' E 139°39'0 0.6
2017-Dec-07 23:00N 35°24' E 139°39'4 8.3
2017-Dec-07 22:30N 35°25' E 139°44'5 9.5
2017-Dec-07 22:00N 35°28' E 139°48'5 9.5
2017-Dec-07 21:30N 35°31' E 139°53'5 9.4
2017-Dec-07 21:00N 35°32' E 139°58'5 9.5
2017-Dec-07 20:30N 35°33' E 140°04'2 3.9
2017-Dec-07 20:00N 35°33' E 140°06'0 0.0
2017-Dec-07 19:30N 35°33' E 140°06'0 0.0
2017-Dec-07 18:53N 35°33' E 140°06'0 0.0
2017-Dec-07 18:29N 35°33' E 140°06'0 0.0
2017-Dec-07 17:47N 35°33' E 140°06'0 0.0
2017-Dec-07 17:29N 35°33' E 140°06'0 0.0
2017-Dec-07 16:59N 35°33' E 140°06'0 0.0
2017-Dec-07 16:29N 35°33' E 140°06'0 0.0
2017-Dec-07 15:59N 35°33' E 140°06'0 0.0
2017-Dec-07 15:29N 35°33' E 140°06'0 0.0
2017-Dec-07 14:59N 35°33' E 140°06'0 0.0
2017-Dec-07 14:29N 35°33' E 140°06'0 0.0
2017-Dec-07 13:59N 35°33' E 140°06'0 0.0
2017-Dec-07 13:29N 35°33' E 140°06'0 0.0
2017-Dec-07 12:59N 35°33' E 140°06'0 0.0
2017-Dec-07 12:29N 35°33' E 140°06'0 0.0
2017-Dec-07 11:59N 35°33' E 140°06'0 0.0
2017-Dec-07 11:30N 35°33' E 140°06'4 7.7
2017-Dec-07 11:00N 35°33' E 140°02'510.1
2017-Dec-07 10:30N 35°30' E 139°56'510.1
2017-Dec-07 10:00N 35°28' E 139°51'510.3
2017-Dec-07 09:30N 35°25' E 139°45'5 9.6
2017-Dec-07 09:00N 35°24' E 139°40'1 1.9
2017-Dec-07 08:29N 35°23' E 139°39'0 0.0
2017-Dec-07 07:59N 35°23' E 139°39'0 0.0
2017-Dec-07 07:29N 35°23' E 139°39'0 0.0
2017-Dec-07 06:59N 35°23' E 139°39'0 0.0
2017-Dec-07 06:29N 35°23' E 139°39'0 0.0
2017-Dec-07 05:59N 35°23' E 139°39'0 0.0
2017-Dec-07 05:29N 35°23' E 139°39'0 0.0
2017-Dec-07 04:59N 35°23' E 139°39'0 0.0
2017-Dec-07 04:29N 35°23' E 139°39'0 0.0
2017-Dec-07 03:59N 35°23' E 139°39'0 0.0
2017-Dec-07 03:29N 35°23' E 139°39'0 0.0
2017-Dec-07 02:59N 35°23' E 139°39'0 0.0
2017-Dec-07 02:29N 35°23' E 139°39'0 0.0
2017-Dec-07 01:59N 35°23' E 139°39'0 0.0
2017-Dec-07 01:29N 35°23' E 139°39'0 0.0
2017-Dec-07 00:59N 35°23' E 139°39'0 0.0
2017-Dec-07 00:29N 35°23' E 139°39'0 0.0
2017-Dec-06 23:59N 35°23' E 139°39'0 0.0
2017-Dec-06 23:29N 35°23' E 139°39'0 0.7
2017-Dec-06 23:00N 35°24' E 139°39'4 8.7
2017-Dec-06 22:31N 35°25' E 139°44'5 9.4
2017-Dec-06 22:00N 35°28' E 139°49'5 9.5
2017-Dec-06 21:31N 35°31' E 139°53'5 9.4
2017-Dec-06 21:00N 35°32' E 139°59'  
2017-Dec-04 10:31N 35°33' E 140°03'5 9.9
2017-Dec-04 10:01N 35°31' E 139°58'5 9.3
2017-Dec-04 09:30N 35°29' E 139°53'5 9.9
2017-Dec-04 09:01N 35°26' E 139°48'5 9.9
2017-Dec-04 08:30N 35°24' E 139°43'3 6.8
2017-Dec-04 08:00N 35°23' E 139°39'0 0.0
2017-Dec-04 07:30N 35°23' E 139°39'0 0.0
2017-Dec-04 07:00N 35°23' E 139°39'0 0.0
2017-Dec-04 06:30N 35°23' E 139°39'0 0.0
2017-Dec-04 06:00N 35°23' E 139°39'0 0.0
2017-Dec-04 05:30N 35°23' E 139°39'0 0.0
2017-Dec-04 05:00N 35°23' E 139°39'0 0.0
2017-Dec-04 04:30N 35°23' E 139°39'0 0.0
2017-Dec-04 04:00N 35°23' E 139°39'0 0.0
2017-Dec-04 03:30N 35°23' E 139°39'0 0.0
2017-Dec-04 03:00N 35°23' E 139°39'0 0.0
2017-Dec-04 02:30N 35°23' E 139°39'0 0.0
2017-Dec-04 02:00N 35°23' E 139°39'0 0.0
2017-Dec-04 01:30N 35°23' E 139°39'0 0.0
2017-Dec-04 01:00N 35°23' E 139°39'0 0.0
2017-Dec-04 00:30N 35°23' E 139°39'0 0.0
2017-Dec-04 00:00N 35°23' E 139°39'0 0.0
2017-Dec-03 23:30N 35°23' E 139°39'0 0.3
2017-Dec-03 23:01N 35°23' E 139°39'3 6.8
2017-Dec-03 22:31N 35°24' E 139°43'5 9.9
2017-Dec-03 22:00N 35°27' E 139°48'510.1
2017-Dec-03 21:30N 35°30' E 139°52'5 9.9
2017-Dec-03 21:00N 35°32' E 139°58'5 9.6
2017-Dec-03 20:30N 35°33' E 140°04'2 3.9
2017-Dec-03 20:00N 35°33' E 140°06'0 0.0
2017-Dec-03 19:30N 35°33' E 140°06'0 0.0
2017-Dec-03 19:00N 35°33' E 140°06'0 0.0
2017-Dec-03 18:30N 35°33' E 140°06'0 0.0
2017-Dec-03 18:00N 35°33' E 140°06'0 0.0
2017-Dec-03 17:29N 35°33' E 140°06'0 0.0
2017-Dec-03 16:59N 35°33' E 140°06'0 0.0
2017-Dec-03 16:29N 35°33' E 140°06'0 0.0
2017-Dec-03 15:59N 35°33' E 140°06'0 0.0
2017-Dec-03 15:29N 35°33' E 140°06'0 0.0
2017-Dec-03 14:59N 35°33' E 140°06'0 0.0
2017-Dec-03 14:29N 35°33' E 140°06'0 0.0
2017-Dec-03 13:59N 35°33' E 140°06'0 0.0
2017-Dec-03 13:29N 35°33' E 140°06'0 0.0
2017-Dec-03 12:59N 35°33' E 140°06'0 0.0
2017-Dec-03 12:29N 35°33' E 140°06'0 0.0
2017-Dec-03 11:59N 35°33' E 140°06'0 0.0
2017-Dec-03 11:29N 35°33' E 140°06'0 0.0
2017-Dec-03 10:59N 35°33' E 140°06'0 0.0
2017-Dec-03 10:29N 35°33' E 140°06'0 0.0
2017-Dec-03 09:59N 35°33' E 140°06'0 0.0
2017-Dec-03 09:29N 35°33' E 140°06'0 0.0
2017-Dec-03 08:59N 35°33' E 140°06'0 0.0
2017-Dec-03 08:29N 35°33' E 140°06'0 0.0
2017-Dec-03 07:59N 35°33' E 140°06'1 2.4
2017-Dec-03 07:30N 35°33' E 140°05'5 9.5
2017-Dec-03 07:00N 35°32' E 139°59'5 9.9
2017-Dec-03 06:31N 35°29' E 139°54'510.3
2017-Dec-03 06:00N 35°27' E 139°48'5 9.3
2017-Dec-03 05:30N 35°27' E 139°43'1 1.9
2017-Dec-03 05:00N 35°28' E 139°42'0 0.0
2017-Dec-03 04:30N 35°28' E 139°42'0 0.0
2017-Dec-03 04:00N 35°28' E 139°42'0 0.0
2017-Dec-03 03:30N 35°28' E 139°42'0 0.0
2017-Dec-03 03:00N 35°28' E 139°42'0 0.0
2017-Dec-03 02:30N 35°28' E 139°42'0 0.0
2017-Dec-03 02:00N 35°28' E 139°42'0 0.0
2017-Dec-03 01:30N 35°28' E 139°42'0 0.0
2017-Dec-03 01:00N 35°28' E 139°42'0 0.0
2017-Dec-03 00:30N 35°28' E 139°42'0 0.0
2017-Dec-03 00:00N 35°28' E 139°42'0 0.0
2017-Dec-02 23:30N 35°28' E 139°42'2 3.4
2017-Dec-02 23:00N 35°27' E 139°43'3 6.8
2017-Dec-02 22:30N 35°28' E 139°47'5 9.5
2017-Dec-02 22:00N 35°30' E 139°53'5 9.8
2017-Dec-02 21:30N 35°32' E 139°58'5 9.6
2017-Dec-02 21:00N 35°33' E 140°04'2 4.1
2017-Dec-02 20:30N 35°33' E 140°06'0 0.0
2017-Dec-02 20:00N 35°33' E 140°06'0 0.0
2017-Dec-02 19:28N 35°33' E 140°06'0 0.0
2017-Dec-02 18:58N 35°33' E 140°06'0 0.0
2017-Dec-02 18:25N 35°33' E 140°06'0 0.0
2017-Dec-02 18:01N 35°33' E 140°06'0 0.0
2017-Dec-02 17:28N 35°33' E 140°06'0 0.0
2017-Dec-02 16:55N 35°33' E 140°06'0 0.0
2017-Dec-02 16:28N 35°33' E 140°06'0 0.0
2017-Dec-02 15:58N 35°33' E 140°06'0 0.0
2017-Dec-02 15:28N 35°33' E 140°06'0 0.0
2017-Dec-02 15:01N 35°33' E 140°06'0 0.0
2017-Dec-02 14:31N 35°33' E 140°06'0 0.0
2017-Dec-02 13:55N 35°33' E 140°06'0 0.0
2017-Dec-02 13:30N 35°33' E 140°06'0 0.0
2017-Dec-02 13:00N 35°33' E 140°06'0 0.0
2017-Dec-02 12:30N 35°33' E 140°06'0 0.0
2017-Dec-02 12:00N 35°33' E 140°06'0 0.0
2017-Dec-02 11:30N 35°33' E 140°06'0 0.0
2017-Dec-02 11:00N 35°33' E 140°06'0 0.0
2017-Dec-02 10:30N 35°33' E 140°06'0 0.0
2017-Dec-02 10:00N 35°33' E 140°06'0 0.0
2017-Dec-02 09:30N 35°33' E 140°06'0 0.0
2017-Dec-02 09:00N 35°33' E 140°06'0 0.0
2017-Dec-02 08:30N 35°33' E 140°06'0 0.0
2017-Dec-02 08:00N 35°33' E 140°06'0 0.0
2017-Dec-02 07:30N 35°33' E 140°06'0 0.0
2017-Dec-02 07:00N 35°33' E 140°06'0 0.0
2017-Dec-02 06:30N 35°33' E 140°06'0 0.0
2017-Dec-02 06:00N 35°33' E 140°06'0 0.0
2017-Dec-02 05:30N 35°33' E 140°06'0 0.0
2017-Dec-02 05:00N 35°33' E 140°06'0 0.0
2017-Dec-02 04:30N 35°33' E 140°06'0 0.0
2017-Dec-02 04:00N 35°33' E 140°06'0 0.0
2017-Dec-02 03:30N 35°33' E 140°06'0 0.0
2017-Dec-02 03:00N 35°33' E 140°06'0 0.0
2017-Dec-02 02:30N 35°33' E 140°06'0 0.0
2017-Dec-02 02:00N 35°33' E 140°06'0 0.0
2017-Dec-02 01:30N 35°33' E 140°06'0 0.0
2017-Dec-02 01:00N 35°33' E 140°06'0 0.0
2017-Dec-02 00:30N 35°33' E 140°06'0 0.0
2017-Dec-02 00:00N 35°33' E 140°06'0 0.0
2017-Dec-01 23:30N 35°33' E 140°06'0 0.1
2017-Dec-01 23:01N 35°33' E 140°06'4 8.3
2017-Dec-01 22:30N 35°33' E 140°01'5 9.2
2017-Dec-01 22:00N 35°30' E 139°56'4 8.7
2017-Dec-01 21:31N 35°28' E 139°52'5 9.0
2017-Dec-01 21:00N 35°26' E 139°47'5 9.0
2017-Dec-01 20:30N 35°23' E 139°42'3 6.1
2017-Dec-01 20:00N 35°23' E 139°39'0 0.0
2017-Dec-01 19:29N 35°23' E 139°39'0 0.0
2017-Dec-01 18:59N 35°23' E 139°39'0 0.0
2017-Dec-01 18:29N 35°23' E 139°39'0 0.0
2017-Dec-01 17:59N 35°23' E 139°39'0 0.0
2017-Dec-01 17:29N 35°23' E 139°39'0 0.0
2017-Dec-01 16:59N 35°23' E 139°39'0 0.0
2017-Dec-01 16:29N 35°23' E 139°39'0 0.0
2017-Dec-01 15:59N 35°23' E 139°39'0 0.0
2017-Dec-01 15:29N 35°23' E 139°39'0 0.0
2017-Dec-01 14:59N 35°23' E 139°39'  
Track history (hours):
 
Tides and Currents Weather Stations Pressure Air Temp Water Temp Dewpoint Dewpoint Depression Visibility Wind Speed Wind Dir Waves Ship Positions

Jfe Tokyo Bay

Last reported at 2017-Dec-11 14:30 UTC. Time now 2017-Dec-11 14:58 UTC.
Position N 35°34' E 140°02'.

Length 70 m; draft 3.9 m.

Type: Cargo ship. MMSI: 431501791.

Date/timePositionNaut miles runAvg speedWind from/ knotsBaromVisibWave heightAir tempDewpointWater temp
2017-Dec-11 14:30N 35°34' E 140°02'0 0.0
2017-Dec-11 14:01N 35°34' E 140°02'0 0.1
2017-Dec-11 13:31N 35°34' E 140°02'0 0.0
2017-Dec-11 12:59N 35°34' E 140°02'0 0.0
2017-Dec-11 12:30N 35°34' E 140°02'0 0.1
2017-Dec-11 12:01N 35°34' E 140°02'0 0.0
2017-Dec-11 11:30N 35°34' E 140°02'0 0.0
2017-Dec-11 11:00N 35°34' E 140°02'0 0.0
2017-Dec-11 10:31N 35°34' E 140°02'0 0.0
2017-Dec-11 10:01N 35°34' E 140°02'0 0.0
2017-Dec-11 09:31N 35°34' E 140°02'0 0.0
2017-Dec-11 08:59N 35°34' E 140°02'0 0.1
2017-Dec-11 08:31N 35°34' E 140°02'0 0.1
2017-Dec-11 08:00N 35°34' E 140°02'0 0.1
2017-Dec-11 07:31N 35°34' E 140°02'0 0.0
2017-Dec-11 07:00N 35°34' E 140°02'0 0.0
2017-Dec-11 06:30N 35°34' E 140°02'0 0.0
2017-Dec-11 06:01N 35°34' E 140°02'0 0.0
2017-Dec-11 05:30N 35°34' E 140°02'0 0.1
2017-Dec-11 05:01N 35°34' E 140°02'0 0.1
2017-Dec-11 04:30N 35°34' E 140°02'0 0.1
2017-Dec-11 04:01N 35°34' E 140°02'0 0.0
2017-Dec-11 03:31N 35°34' E 140°02'0 0.1
2017-Dec-11 03:01N 35°34' E 140°02'0 0.0
2017-Dec-11 02:30N 35°34' E 140°02'0 0.0
2017-Dec-11 02:01N 35°34' E 140°02'0 0.0
2017-Dec-11 01:30N 35°34' E 140°02'0 0.0
2017-Dec-11 01:01N 35°34' E 140°02'0 0.0
2017-Dec-11 00:30N 35°34' E 140°02'0 0.0
2017-Dec-11 00:00N 35°34' E 140°02'0 0.0
2017-Dec-10 23:30N 35°34' E 140°02'0 0.0
2017-Dec-10 23:01N 35°34' E 140°02'0 0.0
2017-Dec-10 22:30N 35°34' E 140°02'0 0.0
2017-Dec-10 22:01N 35°34' E 140°02'0 0.0
2017-Dec-10 21:30N 35°34' E 140°02'0 0.0
2017-Dec-10 21:00N 35°34' E 140°02'0 0.0
2017-Dec-10 20:31N 35°34' E 140°02'4 7.3
2017-Dec-10 20:00N 35°33' E 140°06'0 0.2
2017-Dec-10 19:30N 35°33' E 140°06'0 0.0
2017-Dec-10 19:00N 35°33' E 140°06'0 0.0
2017-Dec-10 18:31N 35°33' E 140°06'0 0.0
2017-Dec-10 18:01N 35°33' E 140°06'0 0.0
2017-Dec-10 17:30N 35°33' E 140°06'0 0.0
2017-Dec-10 17:00N 35°33' E 140°06'0 0.0
2017-Dec-10 16:31N 35°33' E 140°06'0 0.0
2017-Dec-10 16:00N 35°33' E 140°06'0 0.0
2017-Dec-10 15:30N 35°33' E 140°06'0 0.0
2017-Dec-10 15:01N 35°33' E 140°06'0 0.0
2017-Dec-10 14:31N 35°33' E 140°06'0 0.0
2017-Dec-10 14:00N 35°33' E 140°06'0 0.0
2017-Dec-10 13:30N 35°33' E 140°06'0 0.0
2017-Dec-10 13:00N 35°33' E 140°06'0 0.0
2017-Dec-10 12:31N 35°33' E 140°06'0 0.0
2017-Dec-10 12:01N 35°33' E 140°06'0 0.0
2017-Dec-10 11:31N 35°33' E 140°06'0 0.0
2017-Dec-10 11:01N 35°33' E 140°06'0 0.0
2017-Dec-10 10:30N 35°33' E 140°06'0 0.0
2017-Dec-10 10:01N 35°33' E 140°06'0 0.0
2017-Dec-10 09:30N 35°33' E 140°06'0 0.0
2017-Dec-10 09:00N 35°33' E 140°06'0 0.0
2017-Dec-10 08:31N 35°33' E 140°06'0 0.0
2017-Dec-10 08:01N 35°33' E 140°06'0 0.0
2017-Dec-10 07:30N 35°33' E 140°06'0 0.0
2017-Dec-10 07:01N 35°33' E 140°06'0 0.0
2017-Dec-10 06:31N 35°33' E 140°06'0 0.0
2017-Dec-10 06:00N 35°33' E 140°06'0 0.0
2017-Dec-10 05:30N 35°33' E 140°06'0 0.0
2017-Dec-10 05:01N 35°33' E 140°06'0 0.0
2017-Dec-10 04:30N 35°33' E 140°06'0 0.0
2017-Dec-10 04:01N 35°33' E 140°06'0 0.0
2017-Dec-10 03:30N 35°33' E 140°06'0 0.0
2017-Dec-10 03:01N 35°33' E 140°06'0 0.0
2017-Dec-10 02:30N 35°33' E 140°06'0 0.0
2017-Dec-10 02:01N 35°33' E 140°06'3 5.6
2017-Dec-10 01:31N 35°33' E 140°03'5 9.9
2017-Dec-10 01:00N 35°31' E 139°57'5 9.9
2017-Dec-10 00:30N 35°28' E 139°52'5 9.7
2017-Dec-10 00:00N 35°26' E 139°47'5 9.8
2017-Dec-09 23:30N 35°23' E 139°42'3 5.3
2017-Dec-09 23:00N 35°23' E 139°39'0 0.0
2017-Dec-09 22:30N 35°23' E 139°39'0 0.0
2017-Dec-09 22:01N 35°23' E 139°39'0 0.0
2017-Dec-09 21:31N 35°23' E 139°39'0 0.0
2017-Dec-09 21:00N 35°23' E 139°39'0 0.0
2017-Dec-09 20:30N 35°23' E 139°39'0 0.0
2017-Dec-09 20:00N 35°23' E 139°39'0 0.0
2017-Dec-09 19:30N 35°23' E 139°39'0 0.0
2017-Dec-09 19:00N 35°23' E 139°39'0 0.0
2017-Dec-09 18:30N 35°23' E 139°39'0 0.0
2017-Dec-09 18:00N 35°23' E 139°39'0 0.0
2017-Dec-09 17:30N 35°23' E 139°39'0 0.0
2017-Dec-09 17:00N 35°23' E 139°39'0 0.0
2017-Dec-09 16:30N 35°23' E 139°39'0 0.0
2017-Dec-09 16:00N 35°23' E 139°39'0 0.0
2017-Dec-09 15:30N 35°23' E 139°39'0 0.0
2017-Dec-09 15:00N 35°23' E 139°39'0 0.0
2017-Dec-09 14:30N 35°23' E 139°39'0 0.0
2017-Dec-09 14:00N 35°23' E 139°39'0 0.0
2017-Dec-09 13:30N 35°23' E 139°39'0 0.0
2017-Dec-09 13:00N 35°23' E 139°39'0 0.0
2017-Dec-09 12:30N 35°23' E 139°39'0 0.0
2017-Dec-09 12:00N 35°23' E 139°39'0 0.0
2017-Dec-09 11:30N 35°23' E 139°39'0 0.0
2017-Dec-09 11:00N 35°23' E 139°39'0 0.0
2017-Dec-09 10:30N 35°23' E 139°39'0 0.0
2017-Dec-09 10:00N 35°23' E 139°39'0 0.0
2017-Dec-09 09:30N 35°23' E 139°39'0 0.0
2017-Dec-09 09:00N 35°23' E 139°39'0 0.0
2017-Dec-09 08:30N 35°23' E 139°39'0 0.0
2017-Dec-09 08:00N 35°23' E 139°39'0 0.0
2017-Dec-09 07:30N 35°23' E 139°39'0 0.0
2017-Dec-09 07:00N 35°23' E 139°39'0 0.0
2017-Dec-09 06:30N 35°23' E 139°39'0 0.0
2017-Dec-09 06:00N 35°23' E 139°39'0 0.0
2017-Dec-09 05:30N 35°23' E 139°39'0 0.0
2017-Dec-09 05:00N 35°23' E 139°39'0 0.0
2017-Dec-09 04:30N 35°23' E 139°39'0 0.0
2017-Dec-09 04:00N 35°23' E 139°39'0 0.0
2017-Dec-09 03:30N 35°23' E 139°39'0 0.0
2017-Dec-09 03:00N 35°23' E 139°39'0 0.0
2017-Dec-09 02:30N 35°23' E 139°39'0 0.0
2017-Dec-09 02:00N 35°23' E 139°39'0 0.0
2017-Dec-09 01:30N 35°23' E 139°39'0 0.0
2017-Dec-09 01:00N 35°23' E 139°39'0 0.0
2017-Dec-09 00:30N 35°23' E 139°39'0 0.0
2017-Dec-09 00:00N 35°23' E 139°39'0 0.0
2017-Dec-08 23:30N 35°23' E 139°39'1 1.6
2017-Dec-08 23:01N 35°24' E 139°39'4 8.2
2017-Dec-08 22:31N 35°26' E 139°44'5 9.1
2017-Dec-08 22:00N 35°28' E 139°49'5 9.5
2017-Dec-08 21:31N 35°31' E 139°53'5 9.1
2017-Dec-08 21:00N 35°32' E 139°59'5 9.2
2017-Dec-08 20:30N 35°33' E 140°04'2 3.4
2017-Dec-08 20:00N 35°33' E 140°06'0 0.0
2017-Dec-08 19:30N 35°33' E 140°06'0 0.0
2017-Dec-08 19:00N 35°33' E 140°06'0 0.0
2017-Dec-08 18:27N 35°33' E 140°06'0 0.0
2017-Dec-08 18:00N 35°33' E 140°06'0 0.0
2017-Dec-08 17:27N 35°33' E 140°06'0 0.0
2017-Dec-08 16:51N 35°33' E 140°06'0 0.0
2017-Dec-08 16:30N 35°33' E 140°06'0 0.0
2017-Dec-08 15:57N 35°33' E 140°06'0 0.0
2017-Dec-08 15:27N 35°33' E 140°06'0 0.0
2017-Dec-08 15:00N 35°33' E 140°06'0 0.0
2017-Dec-08 14:26N 35°33' E 140°06'0 0.0
2017-Dec-08 13:59N 35°33' E 140°06'0 0.0
2017-Dec-08 13:26N 35°33' E 140°06'0 0.0
2017-Dec-08 12:56N 35°33' E 140°06'0 0.0
2017-Dec-08 12:29N 35°33' E 140°06'0 0.0
2017-Dec-08 11:59N 35°33' E 140°06'0 0.0
2017-Dec-08 11:29N 35°33' E 140°06'3 6.0
2017-Dec-08 11:00N 35°33' E 140°03'5 9.6
2017-Dec-08 10:30N 35°31' E 139°58'5 9.5
2017-Dec-08 10:00N 35°29' E 139°52'5 9.6
2017-Dec-08 09:30N 35°26' E 139°47'5 9.5
2017-Dec-08 09:00N 35°24' E 139°42'3 5.8
2017-Dec-08 08:30N 35°23' E 139°39'0 0.0
2017-Dec-08 08:00N 35°23' E 139°39'0 0.0
2017-Dec-08 07:30N 35°23' E 139°39'0 0.0
2017-Dec-08 07:00N 35°23' E 139°39'0 0.0
2017-Dec-08 06:30N 35°23' E 139°39'0 0.0
2017-Dec-08 06:00N 35°23' E 139°39'0 0.0
2017-Dec-08 05:30N 35°23' E 139°39'0 0.0
2017-Dec-08 05:00N 35°23' E 139°39'0 0.0
2017-Dec-08 04:30N 35°23' E 139°39'0 0.0
2017-Dec-08 04:00N 35°23' E 139°39'0 0.0
2017-Dec-08 03:30N 35°23' E 139°39'0 0.0
2017-Dec-08 03:00N 35°23' E 139°39'0 0.0
2017-Dec-08 02:30N 35°23' E 139°39'0 0.0
2017-Dec-08 02:00N 35°23' E 139°39'0 0.0
2017-Dec-08 01:30N 35°23' E 139°39'0 0.0
2017-Dec-08 01:00N 35°23' E 139°39'0 0.0
2017-Dec-08 00:30N 35°23' E 139°39'0 0.0
2017-Dec-08 00:00N 35°23' E 139°39'0 0.0
2017-Dec-07 23:30N 35°23' E 139°39'0 0.6
2017-Dec-07 23:00N 35°24' E 139°39'4 8.3
2017-Dec-07 22:30N 35°25' E 139°44'5 9.5
2017-Dec-07 22:00N 35°28' E 139°48'5 9.5
2017-Dec-07 21:30N 35°31' E 139°53'5 9.4
2017-Dec-07 21:00N 35°32' E 139°58'5 9.5
2017-Dec-07 20:30N 35°33' E 140°04'2 3.9
2017-Dec-07 20:00N 35°33' E 140°06'0 0.0
2017-Dec-07 19:30N 35°33' E 140°06'0 0.0
2017-Dec-07 18:53N 35°33' E 140°06'0 0.0
2017-Dec-07 18:29N 35°33' E 140°06'0 0.0
2017-Dec-07 17:47N 35°33' E 140°06'0 0.0
2017-Dec-07 17:29N 35°33' E 140°06'0 0.0
2017-Dec-07 16:59N 35°33' E 140°06'0 0.0
2017-Dec-07 16:29N 35°33' E 140°06'0 0.0
2017-Dec-07 15:59N 35°33' E 140°06'0 0.0
2017-Dec-07 15:29N 35°33' E 140°06'0 0.0
2017-Dec-07 14:59N 35°33' E 140°06'0 0.0
2017-Dec-07 14:29N 35°33' E 140°06'0 0.0
2017-Dec-07 13:59N 35°33' E 140°06'0 0.0
2017-Dec-07 13:29N 35°33' E 140°06'0 0.0
2017-Dec-07 12:59N 35°33' E 140°06'0 0.0
2017-Dec-07 12:29N 35°33' E 140°06'0 0.0
2017-Dec-07 11:59N 35°33' E 140°06'0 0.0
2017-Dec-07 11:30N 35°33' E 140°06'4 7.7
2017-Dec-07 11:00N 35°33' E 140°02'510.1
2017-Dec-07 10:30N 35°30' E 139°56'510.1
2017-Dec-07 10:00N 35°28' E 139°51'510.3
2017-Dec-07 09:30N 35°25' E 139°45'5 9.6
2017-Dec-07 09:00N 35°24' E 139°40'1 1.9
2017-Dec-07 08:29N 35°23' E 139°39'0 0.0
2017-Dec-07 07:59N 35°23' E 139°39'0 0.0
2017-Dec-07 07:29N 35°23' E 139°39'0 0.0
2017-Dec-07 06:59N 35°23' E 139°39'0 0.0
2017-Dec-07 06:29N 35°23' E 139°39'0 0.0
2017-Dec-07 05:59N 35°23' E 139°39'0 0.0
2017-Dec-07 05:29N 35°23' E 139°39'0 0.0
2017-Dec-07 04:59N 35°23' E 139°39'0 0.0
2017-Dec-07 04:29N 35°23' E 139°39'0 0.0
2017-Dec-07 03:59N 35°23' E 139°39'0 0.0
2017-Dec-07 03:29N 35°23' E 139°39'0 0.0
2017-Dec-07 02:59N 35°23' E 139°39'0 0.0
2017-Dec-07 02:29N 35°23' E 139°39'0 0.0
2017-Dec-07 01:59N 35°23' E 139°39'0 0.0
2017-Dec-07 01:29N 35°23' E 139°39'0 0.0
2017-Dec-07 00:59N 35°23' E 139°39'0 0.0
2017-Dec-07 00:29N 35°23' E 139°39'0 0.0
2017-Dec-06 23:59N 35°23' E 139°39'0 0.0
2017-Dec-06 23:29N 35°23' E 139°39'0 0.7
2017-Dec-06 23:00N 35°24' E 139°39'4 8.7
2017-Dec-06 22:31N 35°25' E 139°44'5 9.4
2017-Dec-06 22:00N 35°28' E 139°49'5 9.5
2017-Dec-06 21:31N 35°31' E 139°53'5 9.4
2017-Dec-06 21:00N 35°32' E 139°59'  
2017-Dec-04 10:31N 35°33' E 140°03'5 9.9
2017-Dec-04 10:01N 35°31' E 139°58'5 9.3
2017-Dec-04 09:30N 35°29' E 139°53'5 9.9
2017-Dec-04 09:01N 35°26' E 139°48'5 9.9
2017-Dec-04 08:30N 35°24' E 139°43'3 6.8
2017-Dec-04 08:00N 35°23' E 139°39'0 0.0
2017-Dec-04 07:30N 35°23' E 139°39'0 0.0
2017-Dec-04 07:00N 35°23' E 139°39'0 0.0
2017-Dec-04 06:30N 35°23' E 139°39'0 0.0
2017-Dec-04 06:00N 35°23' E 139°39'0 0.0
2017-Dec-04 05:30N 35°23' E 139°39'0 0.0
2017-Dec-04 05:00N 35°23' E 139°39'0 0.0
2017-Dec-04 04:30N 35°23' E 139°39'0 0.0
2017-Dec-04 04:00N 35°23' E 139°39'0 0.0
2017-Dec-04 03:30N 35°23' E 139°39'0 0.0
2017-Dec-04 03:00N 35°23' E 139°39'0 0.0
2017-Dec-04 02:30N 35°23' E 139°39'0 0.0
2017-Dec-04 02:00N 35°23' E 139°39'0 0.0
2017-Dec-04 01:30N 35°23' E 139°39'0 0.0
2017-Dec-04 01:00N 35°23' E 139°39'0 0.0
2017-Dec-04 00:30N 35°23' E 139°39'0 0.0
2017-Dec-04 00:00N 35°23' E 139°39'0 0.0
2017-Dec-03 23:30N 35°23' E 139°39'0 0.3
2017-Dec-03 23:01N 35°23' E 139°39'3 6.8
2017-Dec-03 22:31N 35°24' E 139°43'5 9.9
2017-Dec-03 22:00N 35°27' E 139°48'510.1
2017-Dec-03 21:30N 35°30' E 139°52'5 9.9
2017-Dec-03 21:00N 35°32' E 139°58'5 9.6
2017-Dec-03 20:30N 35°33' E 140°04'2 3.9
2017-Dec-03 20:00N 35°33' E 140°06'0 0.0
2017-Dec-03 19:30N 35°33' E 140°06'0 0.0
2017-Dec-03 19:00N 35°33' E 140°06'0 0.0
2017-Dec-03 18:30N 35°33' E 140°06'0 0.0
2017-Dec-03 18:00N 35°33' E 140°06'0 0.0
2017-Dec-03 17:29N 35°33' E 140°06'0 0.0
2017-Dec-03 16:59N 35°33' E 140°06'0 0.0
2017-Dec-03 16:29N 35°33' E 140°06'0 0.0
2017-Dec-03 15:59N 35°33' E 140°06'0 0.0
2017-Dec-03 15:29N 35°33' E 140°06'0 0.0
2017-Dec-03 14:59N 35°33' E 140°06'0 0.0
2017-Dec-03 14:29N 35°33' E 140°06'0 0.0
2017-Dec-03 13:59N 35°33' E 140°06'0 0.0
2017-Dec-03 13:29N 35°33' E 140°06'0 0.0
2017-Dec-03 12:59N 35°33' E 140°06'0 0.0
2017-Dec-03 12:29N 35°33' E 140°06'0 0.0
2017-Dec-03 11:59N 35°33' E 140°06'0 0.0
2017-Dec-03 11:29N 35°33' E 140°06'0 0.0
2017-Dec-03 10:59N 35°33' E 140°06'0 0.0
2017-Dec-03 10:29N 35°33' E 140°06'0 0.0
2017-Dec-03 09:59N 35°33' E 140°06'0 0.0
2017-Dec-03 09:29N 35°33' E 140°06'0 0.0
2017-Dec-03 08:59N 35°33' E 140°06'0 0.0
2017-Dec-03 08:29N 35°33' E 140°06'0 0.0
2017-Dec-03 07:59N 35°33' E 140°06'1 2.4
2017-Dec-03 07:30N 35°33' E 140°05'5 9.5
2017-Dec-03 07:00N 35°32' E 139°59'5 9.9
2017-Dec-03 06:31N 35°29' E 139°54'510.3
2017-Dec-03 06:00N 35°27' E 139°48'5 9.3
2017-Dec-03 05:30N 35°27' E 139°43'1 1.9
2017-Dec-03 05:00N 35°28' E 139°42'0 0.0
2017-Dec-03 04:30N 35°28' E 139°42'0 0.0
2017-Dec-03 04:00N 35°28' E 139°42'0 0.0
2017-Dec-03 03:30N 35°28' E 139°42'0 0.0
2017-Dec-03 03:00N 35°28' E 139°42'0 0.0
2017-Dec-03 02:30N 35°28' E 139°42'0 0.0
2017-Dec-03 02:00N 35°28' E 139°42'0 0.0
2017-Dec-03 01:30N 35°28' E 139°42'0 0.0
2017-Dec-03 01:00N 35°28' E 139°42'0 0.0
2017-Dec-03 00:30N 35°28' E 139°42'0 0.0
2017-Dec-03 00:00N 35°28' E 139°42'0 0.0
2017-Dec-02 23:30N 35°28' E 139°42'2 3.4
2017-Dec-02 23:00N 35°27' E 139°43'3 6.8
2017-Dec-02 22:30N 35°28' E 139°47'5 9.5
2017-Dec-02 22:00N 35°30' E 139°53'5 9.8
2017-Dec-02 21:30N 35°32' E 139°58'5 9.6
2017-Dec-02 21:00N 35°33' E 140°04'2 4.1
2017-Dec-02 20:30N 35°33' E 140°06'0 0.0
2017-Dec-02 20:00N 35°33' E 140°06'0 0.0
2017-Dec-02 19:28N 35°33' E 140°06'0 0.0
2017-Dec-02 18:58N 35°33' E 140°06'0 0.0
2017-Dec-02 18:25N 35°33' E 140°06'0 0.0
2017-Dec-02 18:01N 35°33' E 140°06'0 0.0
2017-Dec-02 17:28N 35°33' E 140°06'0 0.0
2017-Dec-02 16:55N 35°33' E 140°06'0 0.0
2017-Dec-02 16:28N 35°33' E 140°06'0 0.0
2017-Dec-02 15:58N 35°33' E 140°06'0 0.0
2017-Dec-02 15:28N 35°33' E 140°06'0 0.0
2017-Dec-02 15:01N 35°33' E 140°06'0 0.0
2017-Dec-02 14:31N 35°33' E 140°06'0 0.0
2017-Dec-02 13:55N 35°33' E 140°06'0 0.0
2017-Dec-02 13:30N 35°33' E 140°06'0 0.0
2017-Dec-02 13:00N 35°33' E 140°06'0 0.0
2017-Dec-02 12:30N 35°33' E 140°06'0 0.0
2017-Dec-02 12:00N 35°33' E 140°06'0 0.0
2017-Dec-02 11:30N 35°33' E 140°06'0 0.0
2017-Dec-02 11:00N 35°33' E 140°06'0 0.0
2017-Dec-02 10:30N 35°33' E 140°06'0 0.0
2017-Dec-02 10:00N 35°33' E 140°06'0 0.0
2017-Dec-02 09:30N 35°33' E 140°06'0 0.0
2017-Dec-02 09:00N 35°33' E 140°06'0 0.0
2017-Dec-02 08:30N 35°33' E 140°06'0 0.0
2017-Dec-02 08:00N 35°33' E 140°06'0 0.0
2017-Dec-02 07:30N 35°33' E 140°06'0 0.0
2017-Dec-02 07:00N 35°33' E 140°06'0 0.0
2017-Dec-02 06:30N 35°33' E 140°06'0 0.0
2017-Dec-02 06:00N 35°33' E 140°06'0 0.0
2017-Dec-02 05:30N 35°33' E 140°06'0 0.0
2017-Dec-02 05:00N 35°33' E 140°06'0 0.0
2017-Dec-02 04:30N 35°33' E 140°06'0 0.0
2017-Dec-02 04:00N 35°33' E 140°06'0 0.0
2017-Dec-02 03:30N 35°33' E 140°06'0 0.0
2017-Dec-02 03:00N 35°33' E 140°06'0 0.0
2017-Dec-02 02:30N 35°33' E 140°06'0 0.0
2017-Dec-02 02:00N 35°33' E 140°06'0 0.0
2017-Dec-02 01:30N 35°33' E 140°06'0 0.0
2017-Dec-02 01:00N 35°33' E 140°06'0 0.0
2017-Dec-02 00:30N 35°33' E 140°06'0 0.0
2017-Dec-02 00:00N 35°33' E 140°06'0 0.0
2017-Dec-01 23:30N 35°33' E 140°06'0 0.1
2017-Dec-01 23:01N 35°33' E 140°06'4 8.3
2017-Dec-01 22:30N 35°33' E 140°01'5 9.2
2017-Dec-01 22:00N 35°30' E 139°56'4 8.7
2017-Dec-01 21:31N 35°28' E 139°52'5 9.0
2017-Dec-01 21:00N 35°26' E 139°47'5 9.0
2017-Dec-01 20:30N 35°23' E 139°42'3 6.1
2017-Dec-01 20:00N 35°23' E 139°39'0 0.0
2017-Dec-01 19:29N 35°23' E 139°39'0 0.0
2017-Dec-01 18:59N 35°23' E 139°39'0 0.0
2017-Dec-01 18:29N 35°23' E 139°39'0 0.0
2017-Dec-01 17:59N 35°23' E 139°39'0 0.0
2017-Dec-01 17:29N 35°23' E 139°39'0 0.0
2017-Dec-01 16:59N 35°23' E 139°39'0 0.0
2017-Dec-01 16:29N 35°23' E 139°39'0 0.0
2017-Dec-01 15:59N 35°23' E 139°39'0 0.0
2017-Dec-01 15:29N 35°23' E 139°39'0 0.0
2017-Dec-01 14:59N 35°23' E 139°39'  

Dump ship's entire track history